Labolt, SD (57246)

4:26 AM CDT on September 20, 2014 (GMT -0500)
Turkey Ridge | Change Station
CLOSE
Current Station
Personal Weather Station
Location: Watertown, SD
Elevation: 1795 ft
Nearby Weather Stations

Elev 1795 ft 44.91 °N, 97.08 °W | Updated 6 minutes ago

Partly Cloudy
Partly Cloudy
57.4 °F
Feels Like 57.4 °F
N
0.0
Wind Variable Wind from WNW
Gusts 1.0 mph

Today
High -- | Low -- °F
--% Chance of Precip.
Yesterday
High -- | Low -- °F
Precip. -- in
7:11 AM 7:28 PM
Waning Crescent, 13% visible
Pressure 29.80 in
Visibility 10.0 miles
Clouds Clear
Dew Point 54 °F
Humidity 87%
Rainfall 0.00 in
Snow Depth 0 in
UV 0 out of 12
Pollen 3.40 out of 12
Air Quality Not available.
Flu Activity Not available.
METAR KATY 200853Z AUTO 00000KT 10SM CLR 14/12 A2982 RMK AO2 SLP089 T01440122 51023

More Conditions Fewer Conditions

Pressure 29.80 in
Visibility 10.0 miles
Clouds Clear
Dew Point 54 °F
Humidity 87%
Rainfall 0.00 in
Snow Depth 0 in
UV 0 out of 12
Pollen 3.40 out of 12
Air Quality Not available.
Flu Activity Not available.
METAR KATY 200853Z AUTO 00000KT 10SM CLR 14/12 A2982 RMK AO2 SLP089 T01440122 51023

More Conditions Fewer Conditions

10-Day Weather Forecast

Almanac

Astronomy

Sep. 20, 2014 Rise Set
Actual Time 7:11 AM CDT 7:28 PM CDT
Civil Twilight 6:42 AM CDT 7:57 PM CDT
Nautical Twilight 6:07 AM CDT 8:31 PM CDT
Astronomical Twilight 5:31 AM CDT 9:07 PM CDT
Moon 3:44 AM CDT 5:38 PM CDT
Length of Visible Light 13h 15m
Length of Day
12h 16m
Tomorrow will be 3m 6s shorter.
Waning Crescent, 13% of the Moon is Illuminated
Today
Waning Crescent
Sep 24
New
Oct 1
First Quarter
Oct 8
Full
Oct 15
Last Quarter

Today's Extremes

State Highs State Lows

Community

WunderPhotos

Upload Photos

1,754,794 photos uploaded!

WunderBlogs® & News

Nearby

Snow Depth

Station Depth Elevation
Blind Park 0 in 6890 ft

Earthquake Activity

City Distance Mag. Time & Date
No recent earthquake activity has been reported nearby.
Minimum magnitude displayed is 2.5.

Coastal Water Temperatures

Place Temperature
No Stations Reporting

Nearby Weather Stations